Terminal Aerodrome Forecast
Issued by NWS Paducah, KY

Home | Current Version | Previous Version | Text Only | Print | Product List | Glossary On
Versions: 1 2 3 4 5 6 7 8 9 10 11 12 13
249
FTUS43 KPAH 220520
TAFPAH
TAF
KPAH 220520Z 2206/2306 22004KT P6SM FEW250
     FM221400 23007KT P6SM SCT250
     FM221900 22010G15KT P6SM SCT050
     FM230100 21008KT P6SM SCT060 BKN250=

USA.gov is the U.S. government's official web portal to all federal, state and local government web resources and services.